createdAt,value
2018-06-28T00:00:32.804Z,1.90
2018-06-28T00:03:02.112Z,2.40
2018-06-28T00:05:31.548Z,2.10
2018-06-28T00:08:00.812Z,2.00
2018-06-28T00:10:30.131Z,1.93
2018-06-28T00:12:59.456Z,1.93
2018-06-28T00:15:28.763Z,2.03
2018-06-28T00:17:58.134Z,1.93
2018-06-28T00:20:27.432Z,2.10
2018-06-28T00:22:56.721Z,2.20
2018-06-28T00:25:26.589Z,1.80
2018-06-28T00:27:56.140Z,2.03
2018-06-28T00:30:25.712Z,1.93
2018-06-28T00:32:55.412Z,1.80
2018-06-28T00:35:24.885Z,1.63
2018-06-28T00:37:54.316Z,1.90
2018-06-28T00:40:23.594Z,1.97
2018-06-28T00:42:52.940Z,2.17
2018-06-28T00:45:22.252Z,2.10
2018-06-28T00:47:51.560Z,2.30
2018-06-28T00:50:20.868Z,2.10
2018-06-28T00:52:50.179Z,2.53
2018-06-28T00:55:19.589Z,2.23
2018-06-28T00:57:49.140Z,2.30
2018-06-28T01:00:18.627Z,2.07
2018-06-28T01:02:48.236Z,2.00
2018-06-28T01:05:17.580Z,2.10
2018-06-28T01:07:46.915Z,2.30
2018-06-28T01:10:16.247Z,1.93
2018-06-28T01:12:45.602Z,1.87
2018-06-28T01:15:14.924Z,2.10
2018-06-28T01:17:44.291Z,1.80
2018-06-28T01:20:13.639Z,2.30
2018-06-28T01:22:42.976Z,2.07
2018-06-28T01:25:12.316Z,2.00
2018-06-28T01:27:41.617Z,1.90
2018-06-28T01:30:11.070Z,2.10
2018-06-28T01:32:40.605Z,1.80
2018-06-28T01:35:09.895Z,2.20
2018-06-28T01:37:39.323Z,1.97
2018-06-28T01:40:08.603Z,2.20
2018-06-28T01:42:54.857Z,1.90
2018-06-28T01:45:24.330Z,2.20
2018-06-28T01:47:53.825Z,2.13
2018-06-28T01:50:23.271Z,2.20
2018-06-28T01:52:52.918Z,2.10
2018-06-28T01:55:22.380Z,2.60
2018-06-28T01:57:51.716Z,2.10
2018-06-28T02:00:21.048Z,1.80
2018-06-28T02:02:50.432Z,2.10
2018-06-28T02:05:19.724Z,2.23
2018-06-28T02:07:49.152Z,2.17
2018-06-28T02:10:18.625Z,2.40
2018-06-28T02:12:48.270Z,2.50
2018-06-28T02:15:17.792Z,2.17
2018-06-28T02:17:47.372Z,2.00
2018-06-28T02:20:16.716Z,2.40
2018-06-28T02:22:46.029Z,2.20
2018-06-28T02:25:15.415Z,2.27
2018-06-28T02:27:44.704Z,2.33
2018-06-28T02:30:14.017Z,2.33
2018-06-28T02:32:43.319Z,2.10
2018-06-28T02:35:12.629Z,2.10
2018-06-28T02:37:41.965Z,2.13
2018-06-28T02:40:11.272Z,2.00
2018-06-28T02:42:40.641Z,1.90
2018-06-28T02:45:09.980Z,2.20
2018-06-28T02:47:39.260Z,2.20
2018-06-28T02:50:08.644Z,2.20
2018-06-28T02:52:37.968Z,2.20
2018-06-28T02:55:07.331Z,2.40
2018-06-28T02:57:36.696Z,2.70
2018-06-28T03:00:06.463Z,1.90
2018-06-28T03:02:35.778Z,2.20
2018-06-28T03:05:05.160Z,2.00
2018-06-28T03:07:34.421Z,2.33
2018-06-28T03:10:03.819Z,2.13
2018-06-28T03:12:33.174Z,1.80
2018-06-28T03:15:02.520Z,2.03
2018-06-28T03:17:31.840Z,2.07
2018-06-28T03:20:01.217Z,2.10
2018-06-28T03:22:30.545Z,2.10
2018-06-28T03:24:59.845Z,2.17
2018-06-28T03:27:29.129Z,2.40
2018-06-28T03:29:58.445Z,2.00
2018-06-28T03:32:27.741Z,2.20
2018-06-28T03:34:57.081Z,2.20
2018-06-28T03:37:26.357Z,2.00
2018-06-28T03:39:55.691Z,2.00
2018-06-28T03:42:24.952Z,2.30
2018-06-28T03:44:54.306Z,2.33
2018-06-28T03:47:23.669Z,2.70
2018-06-28T03:49:52.995Z,2.33
2018-06-28T03:52:22.316Z,2.30
2018-06-28T03:54:51.625Z,2.30
2018-06-28T03:57:20.950Z,2.20
2018-06-28T03:59:50.331Z,2.23
2018-06-28T04:02:19.781Z,2.00
2018-06-28T04:04:49.117Z,1.97
2018-06-28T04:07:18.421Z,2.13
2018-06-28T04:09:47.825Z,2.30
2018-06-28T04:12:17.132Z,2.47
2018-06-28T04:14:46.428Z,2.93
2018-06-28T04:17:15.752Z,2.50
2018-06-28T04:19:45.061Z,2.30
2018-06-28T04:22:18.592Z,3.53
2018-06-28T04:24:47.870Z,2.23
2018-06-28T04:27:17.209Z,2.10
2018-06-28T04:29:46.540Z,2.10
2018-06-28T04:32:16.018Z,1.97
2018-06-28T04:34:45.308Z,2.10
2018-06-28T04:37:14.676Z,2.00
2018-06-28T04:39:43.988Z,2.43
2018-06-28T04:42:13.355Z,3.10
2018-06-28T04:44:42.656Z,2.20
2018-06-28T04:47:11.976Z,2.50
2018-06-28T04:49:41.268Z,3.00
2018-06-28T04:52:10.621Z,2.20
2018-06-28T04:54:39.905Z,2.00
2018-06-28T04:57:09.253Z,2.50
2018-06-28T04:59:38.562Z,3.40
2018-06-28T05:02:07.892Z,2.43
2018-06-28T05:04:37.187Z,2.37
2018-06-28T05:07:06.548Z,2.20
2018-06-28T05:09:35.809Z,3.60
2018-06-28T05:12:05.177Z,3.57
2018-06-28T05:14:34.492Z,2.30
2018-06-28T05:17:03.909Z,2.00
2018-06-28T05:19:33.245Z,2.30
2018-06-28T05:22:02.608Z,2.10
2018-06-28T05:24:31.987Z,2.13
2018-06-28T05:27:01.313Z,2.10
2018-06-28T05:29:30.590Z,2.10
2018-06-28T05:31:59.909Z,2.10
2018-06-28T05:34:29.189Z,2.20
2018-06-28T05:36:58.540Z,2.40
2018-06-28T05:39:27.956Z,2.47
2018-06-28T05:41:57.253Z,2.23
2018-06-28T05:44:26.677Z,2.17
2018-06-28T05:46:56.197Z,2.20
2018-06-28T05:49:25.546Z,3.30
2018-06-28T05:51:54.935Z,4.37
2018-06-28T05:54:24.216Z,2.50
2018-06-28T05:56:53.529Z,2.50
2018-06-28T05:59:22.832Z,2.47
2018-06-28T06:01:52.315Z,2.20
2018-06-28T06:04:21.654Z,2.20
2018-06-28T06:06:51.038Z,2.40
2018-06-28T06:09:20.338Z,2.30
2018-06-28T06:11:50.116Z,2.50
2018-06-28T06:14:19.648Z,2.47
2018-06-28T06:16:49.236Z,2.40
2018-06-28T06:19:18.860Z,2.57
2018-06-28T06:21:48.396Z,2.03
2018-06-28T06:24:18.012Z,2.20
2018-06-28T06:26:47.604Z,2.47
2018-06-28T06:29:17.993Z,2.20
2018-06-28T06:31:48.654Z,3.70
2018-06-28T06:34:18.254Z,2.47
2018-06-28T06:36:48.197Z,2.33
2018-06-28T06:39:17.520Z,2.10
2018-06-28T06:41:46.855Z,2.73
2018-06-28T06:44:16.182Z,2.40
2018-06-28T06:46:45.525Z,2.40
2018-06-28T06:49:14.863Z,2.40
2018-06-28T06:51:44.258Z,2.53
2018-06-28T06:54:13.872Z,2.50
2018-06-28T06:56:43.434Z,2.70
2018-06-28T06:59:12.949Z,2.60
2018-06-28T07:01:42.469Z,2.37
2018-06-28T07:04:11.957Z,3.60
2018-06-28T07:06:41.535Z,2.23
2018-06-28T07:09:12.616Z,2.37
2018-06-28T07:11:42.276Z,2.27
2018-06-28T07:14:12.188Z,2.47
2018-06-28T07:16:41.749Z,2.07
2018-06-28T07:19:11.240Z,2.87
2018-06-28T07:21:40.810Z,2.30
2018-06-28T07:24:10.183Z,2.40
2018-06-28T07:26:39.529Z,2.50
2018-06-28T07:29:08.838Z,3.50
2018-06-28T07:31:38.160Z,2.67
2018-06-28T07:34:07.561Z,2.57
2018-06-28T07:36:36.872Z,3.10
2018-06-28T07:39:08.957Z,2.97
2018-06-28T07:41:38.532Z,2.17
2018-06-28T07:44:08.033Z,2.67
2018-06-28T07:46:37.441Z,2.50
2018-06-28T07:49:06.799Z,2.27
2018-06-28T07:51:36.108Z,2.60
2018-06-28T07:54:05.448Z,2.27
2018-06-28T07:56:34.917Z,2.80
2018-06-28T07:59:04.503Z,2.53
2018-06-28T08:01:34.082Z,2.57
2018-06-28T08:04:03.705Z,2.50
2018-06-28T08:06:33.189Z,2.97
2018-06-28T08:09:02.779Z,2.43
2018-06-28T08:11:32.335Z,2.57
2018-06-28T08:14:01.861Z,2.80
2018-06-28T08:16:31.394Z,2.90
2018-06-28T08:19:01.205Z,3.53
2018-06-28T08:21:30.889Z,2.67
2018-06-28T08:24:00.336Z,2.53
2018-06-28T08:26:29.654Z,2.70
2018-06-28T08:28:59.020Z,2.50
2018-06-28T08:31:28.399Z,2.67
2018-06-28T08:33:57.696Z,2.70
2018-06-28T08:36:27.069Z,2.60
2018-06-28T08:38:56.414Z,3.07
2018-06-28T08:41:25.799Z,2.73
2018-06-28T08:43:55.337Z,2.63
2018-06-28T08:46:24.971Z,2.70
2018-06-28T08:48:54.514Z,2.73
2018-06-28T08:51:24.041Z,2.97
2018-06-28T08:53:53.525Z,2.50
2018-06-28T08:56:23.049Z,2.37
2018-06-28T08:58:52.625Z,2.57
2018-06-28T09:01:22.192Z,2.80
2018-06-28T09:03:51.754Z,2.77
2018-06-28T09:06:21.080Z,2.60
2018-06-28T09:08:50.385Z,2.37
2018-06-28T09:11:19.745Z,2.57
2018-06-28T09:13:49.024Z,2.43
2018-06-28T09:16:18.445Z,2.23
2018-06-28T09:18:47.784Z,2.30
2018-06-28T09:21:17.101Z,2.70
2018-06-28T09:23:46.411Z,2.27
2018-06-28T09:26:15.757Z,2.67
2018-06-28T09:28:45.066Z,2.60
2018-06-28T09:31:14.403Z,3.60
2018-06-28T09:33:43.710Z,2.00
2018-06-28T09:36:13.049Z,2.30
2018-06-28T09:38:42.377Z,2.20
2018-06-28T09:41:11.699Z,2.50
2018-06-28T09:43:40.999Z,2.60
2018-06-28T09:46:10.468Z,2.43
2018-06-28T09:48:39.846Z,2.13
2018-06-28T09:51:09.120Z,2.20
2018-06-28T09:53:38.424Z,2.47
2018-06-28T09:56:08.056Z,2.30
2018-06-28T09:58:37.444Z,2.10
2018-06-28T10:01:07.412Z,2.27
2018-06-28T10:03:36.865Z,2.13
2018-06-28T10:06:06.464Z,2.10
2018-06-28T10:08:36.029Z,2.33
2018-06-28T10:11:05.544Z,2.50
2018-06-28T10:13:35.015Z,3.07
2018-06-28T10:16:04.764Z,2.50
2018-06-28T10:18:34.325Z,2.57
2018-06-28T10:21:03.866Z,2.27
2018-06-28T10:23:33.412Z,2.03
2018-06-28T10:26:02.721Z,2.33
2018-06-28T10:28:32.042Z,2.33
2018-06-28T10:31:01.344Z,2.50
2018-06-28T10:33:30.753Z,2.33
2018-06-28T10:36:00.057Z,2.43
2018-06-28T10:38:29.369Z,2.73
2018-06-28T10:40:58.729Z,2.80
2018-06-28T10:43:28.013Z,2.47
2018-06-28T10:45:58.534Z,2.50
2018-06-28T10:48:28.190Z,2.67
2018-06-28T10:50:57.727Z,2.57
2018-06-28T10:53:27.367Z,2.40
2018-06-28T10:55:56.676Z,2.67
2018-06-28T10:58:26.038Z,2.60
2018-06-28T11:00:55.334Z,2.33
2018-06-28T11:03:24.725Z,2.93
2018-06-28T11:05:54.016Z,2.50
2018-06-28T11:08:23.382Z,2.80
2018-06-28T11:10:52.693Z,2.80
2018-06-28T11:13:22.092Z,2.67
2018-06-28T11:15:51.373Z,2.67
2018-06-28T11:18:20.768Z,2.83
2018-06-28T11:20:50.089Z,2.33
2018-06-28T11:23:19.460Z,2.87
2018-06-28T11:25:48.762Z,2.67
2018-06-28T11:28:18.085Z,2.50
2018-06-28T11:30:47.400Z,2.40
2018-06-28T11:33:16.713Z,2.80
2018-06-28T11:35:45.976Z,2.90
2018-06-28T11:38:15.340Z,2.50
2018-06-28T11:40:44.684Z,3.03
2018-06-28T11:43:14.009Z,2.70
2018-06-28T11:45:43.343Z,2.80
2018-06-28T11:48:12.672Z,2.60
2018-06-28T11:50:41.980Z,2.73
2018-06-28T11:53:11.315Z,3.20
2018-06-28T11:55:40.575Z,2.50
2018-06-28T11:58:09.891Z,2.97
2018-06-28T12:00:39.213Z,2.70
2018-06-28T12:03:08.528Z,3.10
2018-06-28T12:05:37.899Z,2.60
2018-06-28T12:08:07.162Z,2.50
2018-06-28T12:10:36.448Z,2.60
2018-06-28T12:13:05.916Z,3.20
2018-06-28T12:15:35.204Z,2.30
2018-06-28T12:18:04.543Z,2.70
2018-06-28T12:20:33.856Z,3.10
2018-06-28T12:23:03.153Z,2.30
2018-06-28T12:25:32.632Z,2.03
2018-06-28T12:28:02.084Z,2.30
2018-06-28T12:30:31.440Z,2.43
2018-06-28T12:33:00.728Z,2.23
2018-06-28T12:35:30.053Z,2.13
2018-06-28T12:37:59.350Z,2.10
2018-06-28T12:40:28.672Z,2.50
2018-06-28T12:42:58.025Z,2.43
2018-06-28T12:45:27.429Z,2.60
2018-06-28T12:48:03.422Z,2.50
2018-06-28T12:50:32.811Z,2.80
2018-06-28T12:53:09.634Z,2.60
2018-06-28T12:56:42.530Z,2.50
2018-06-28T12:59:13.158Z,2.00
2018-06-28T13:01:42.533Z,2.50
2018-06-28T13:04:11.867Z,2.00
2018-06-28T13:06:41.193Z,2.57
2018-06-28T13:09:15.502Z,2.23
2018-06-28T13:11:44.840Z,1.93
2018-06-28T13:14:14.143Z,1.97
2018-06-28T13:16:43.522Z,2.20
2018-06-28T13:19:12.841Z,2.20
2018-06-28T13:21:42.133Z,2.10
2018-06-28T13:24:11.437Z,2.37
2018-06-28T13:26:40.751Z,2.63
2018-06-28T13:29:10.057Z,2.27
2018-06-28T13:31:39.426Z,2.00
2018-06-28T13:34:08.728Z,2.00
2018-06-28T13:36:38.071Z,2.10
2018-06-28T13:39:07.530Z,1.90
2018-06-28T13:41:37.181Z,2.10
2018-06-28T13:44:06.228Z,1.80
2018-06-28T13:46:35.567Z,2.13
2018-06-28T13:49:05.106Z,2.07
2018-06-28T13:51:34.444Z,2.30
2018-06-28T13:54:03.811Z,2.17
2018-06-28T13:56:33.181Z,1.70
2018-06-28T13:59:02.502Z,1.87
2018-06-28T14:01:31.841Z,2.10
2018-06-28T14:04:01.171Z,1.80
2018-06-28T14:06:30.474Z,1.93
2018-06-28T14:08:59.761Z,2.00
2018-06-28T14:11:29.044Z,1.90
2018-06-28T14:13:58.423Z,1.90
2018-06-28T14:16:27.752Z,1.90
2018-06-28T14:18:57.076Z,2.17
2018-06-28T14:21:26.375Z,1.90
2018-06-28T14:23:55.677Z,1.90
2018-06-28T14:26:25.048Z,1.90
2018-06-28T14:28:54.389Z,2.10
2018-06-28T14:31:26.476Z,1.90
2018-06-28T14:33:55.852Z,1.77
2018-06-28T14:36:25.256Z,1.90
2018-06-28T14:38:54.588Z,1.87
2018-06-28T14:41:23.900Z,1.90
2018-06-28T14:43:53.251Z,2.03
2018-06-28T14:46:22.561Z,1.80
2018-06-28T14:48:51.917Z,2.00
2018-06-28T14:51:21.196Z,1.77
2018-06-28T14:53:50.532Z,1.90
2018-06-28T14:56:19.830Z,1.77
2018-06-28T14:58:49.180Z,2.00
2018-06-28T15:01:18.526Z,1.97
2018-06-28T15:03:47.849Z,1.87
2018-06-28T15:06:17.140Z,1.87
2018-06-28T15:08:46.469Z,1.70
2018-06-28T15:11:22.117Z,2.20
2018-06-28T15:13:51.436Z,1.90
2018-06-28T15:16:20.727Z,1.87
2018-06-28T15:18:50.080Z,2.27
2018-06-28T15:21:19.456Z,2.00
2018-06-28T15:23:48.732Z,2.00
2018-06-28T15:26:18.026Z,2.00
2018-06-28T15:28:47.356Z,1.93
2018-06-28T15:31:16.685Z,1.97
2018-06-28T15:33:46.372Z,1.93
2018-06-28T15:36:15.737Z,1.90
2018-06-28T15:38:45.183Z,2.03
2018-06-28T15:41:14.644Z,1.80
2018-06-28T15:43:44.139Z,1.90
2018-06-28T15:46:13.639Z,2.50
2018-06-28T15:48:42.956Z,2.23
2018-06-28T15:51:12.285Z,2.10
2018-06-28T15:53:41.632Z,2.47
2018-06-28T15:56:10.997Z,1.77
2018-06-28T15:58:40.357Z,2.20
2018-06-28T16:01:09.669Z,2.13
2018-06-28T16:03:38.965Z,2.20
2018-06-28T16:06:08.296Z,2.10
2018-06-28T16:08:37.588Z,2.17
2018-06-28T16:11:07.093Z,2.20
2018-06-28T16:13:36.344Z,2.47
2018-06-28T16:16:05.884Z,2.00
2018-06-28T16:18:35.372Z,2.00
2018-06-28T16:21:04.762Z,2.00
2018-06-28T16:23:34.256Z,2.00
2018-06-28T16:26:03.637Z,1.83
2018-06-28T16:28:33.173Z,2.10
2018-06-28T16:31:02.480Z,2.03
2018-06-28T16:33:31.795Z,1.97
2018-06-28T16:36:01.108Z,2.00
2018-06-28T16:38:30.399Z,2.13
2018-06-28T16:40:59.956Z,2.03
2018-06-28T16:43:29.279Z,2.00
2018-06-28T16:45:58.630Z,2.57
2018-06-28T16:48:27.968Z,2.17
2018-06-28T16:50:57.297Z,2.13
2018-06-28T16:53:26.576Z,2.30
2018-06-28T16:55:55.928Z,2.60
2018-06-28T16:58:25.218Z,2.40
2018-06-28T17:00:54.545Z,2.23
2018-06-28T17:03:23.847Z,2.23
2018-06-28T17:05:53.165Z,2.00
2018-06-28T17:08:22.468Z,2.17
2018-06-28T17:10:51.777Z,1.70
2018-06-28T17:13:21.070Z,2.10
2018-06-28T17:15:50.410Z,1.70
2018-06-28T17:18:19.762Z,1.83
2018-06-28T17:20:49.109Z,2.07
2018-06-28T17:23:18.426Z,2.30
2018-06-28T17:25:47.797Z,1.90
2018-06-28T17:28:17.299Z,1.90
2018-06-28T17:30:46.621Z,2.00
2018-06-28T17:33:15.929Z,2.17
2018-06-28T17:35:45.423Z,2.50
2018-06-28T17:38:15.036Z,2.00
2018-06-28T17:40:44.661Z,2.20
2018-06-28T17:43:14.293Z,1.87
2018-06-28T17:45:43.853Z,2.83
2018-06-28T17:48:13.178Z,2.50
2018-06-28T17:50:42.597Z,2.10
2018-06-28T17:53:11.885Z,2.07
2018-06-28T17:55:41.228Z,2.10
2018-06-28T17:58:10.532Z,1.87
2018-06-28T18:00:39.855Z,2.20
2018-06-28T18:03:09.185Z,2.03
2018-06-28T18:05:38.480Z,1.97
2018-06-28T18:08:07.906Z,1.90
2018-06-28T18:10:37.179Z,2.30
2018-06-28T18:13:06.590Z,2.30
2018-06-28T18:15:36.005Z,2.10
2018-06-28T18:18:05.388Z,2.20
2018-06-28T18:20:34.847Z,1.83
2018-06-28T18:23:04.289Z,2.10
2018-06-28T18:25:33.656Z,2.07
2018-06-28T18:28:03.020Z,1.93
2018-06-28T18:30:32.394Z,2.20
2018-06-28T18:33:01.748Z,2.00
2018-06-28T18:35:31.104Z,2.20
2018-06-28T18:38:00.530Z,2.30
2018-06-28T18:40:29.816Z,2.23
2018-06-28T18:42:59.135Z,2.00
2018-06-28T18:45:28.424Z,1.90
2018-06-28T18:47:57.763Z,2.10
2018-06-28T18:50:27.358Z,2.50
2018-06-28T18:52:56.790Z,2.73
2018-06-28T18:55:26.312Z,2.20
2018-06-28T18:57:55.639Z,2.50
2018-06-28T19:00:24.920Z,2.23
2018-06-28T19:02:54.219Z,2.30
2018-06-28T19:05:23.500Z,2.50
2018-06-28T19:07:52.852Z,2.10
2018-06-28T19:10:28.486Z,2.30
2018-06-28T19:12:57.839Z,2.40
2018-06-28T19:15:32.400Z,2.50
2018-06-28T19:18:02.080Z,2.23
2018-06-28T19:20:31.675Z,2.53
2018-06-28T19:23:06.247Z,2.50
2018-06-28T19:25:35.543Z,2.40
2018-06-28T19:28:04.859Z,2.47
2018-06-28T19:30:39.324Z,2.23
2018-06-28T19:33:08.654Z,2.30
2018-06-28T19:35:37.962Z,2.43
2018-06-28T19:38:07.333Z,2.30
2018-06-28T19:40:41.941Z,2.40
2018-06-28T19:43:11.263Z,2.43
2018-06-28T19:45:40.599Z,2.60
2018-06-28T19:48:09.940Z,2.30
2018-06-28T19:50:44.343Z,2.20
2018-06-28T19:53:14.913Z,3.03
2018-06-28T19:55:44.216Z,2.60
2018-06-28T19:58:13.545Z,2.30
2018-06-28T20:00:48.177Z,2.80
2018-06-28T20:03:22.880Z,3.63
2018-06-28T20:05:52.163Z,4.10
2018-06-28T20:08:21.493Z,2.80
2018-06-28T20:10:50.896Z,2.60
2018-06-28T20:13:25.625Z,2.70
2018-06-28T20:16:00.391Z,2.80
2018-06-28T20:18:34.935Z,2.50
2018-06-28T20:21:04.339Z,2.90
2018-06-28T20:23:33.821Z,6.10
2018-06-28T20:26:08.188Z,3.93
2018-06-28T20:28:42.866Z,2.53
2018-06-28T20:31:17.392Z,2.60
2018-06-28T20:33:52.101Z,2.77
2018-06-28T20:36:21.428Z,2.80
2018-06-28T20:38:50.751Z,2.63
2018-06-28T20:41:20.046Z,2.63
2018-06-28T20:43:49.409Z,3.10
2018-06-28T20:46:18.748Z,2.70
2018-06-28T20:48:48.049Z,2.80
2018-06-28T20:51:17.380Z,2.73
2018-06-28T20:53:46.687Z,2.60
2018-06-28T20:56:15.985Z,3.40
2018-06-28T20:58:46.467Z,3.23
2018-06-28T21:01:15.786Z,3.10
2018-06-28T21:03:45.264Z,3.23
2018-06-28T21:06:14.544Z,2.80
2018-06-28T21:08:43.883Z,2.70
2018-06-28T21:11:13.221Z,3.10
2018-06-28T21:13:42.511Z,4.07
2018-06-28T21:16:11.831Z,5.17
2018-06-28T21:18:41.163Z,4.63
2018-06-28T21:21:10.500Z,6.17
2018-06-28T21:23:39.975Z,6.00
2018-06-28T21:26:09.516Z,4.73
2018-06-28T21:28:39.042Z,5.13
2018-06-28T21:31:08.352Z,6.93
2018-06-28T21:33:37.626Z,7.03
2018-06-28T21:36:07.042Z,6.13
2018-06-28T21:38:36.346Z,7.60
2018-06-28T21:41:06.005Z,7.77
2018-06-28T21:43:35.284Z,6.20
2018-06-28T21:46:04.891Z,6.70
2018-06-28T21:48:34.364Z,5.20
2018-06-28T21:51:03.987Z,3.10
2018-06-28T21:53:33.276Z,3.10
2018-06-28T21:56:02.716Z,2.83
2018-06-28T21:58:32.045Z,3.13
2018-06-28T22:01:01.380Z,2.60
2018-06-28T22:03:30.705Z,3.00
2018-06-28T22:06:00.028Z,2.93
2018-06-28T22:08:29.293Z,3.00
2018-06-28T22:10:58.619Z,2.80
2018-06-28T22:13:27.884Z,3.13
2018-06-28T22:15:57.255Z,2.97
2018-06-28T22:18:26.618Z,2.83
2018-06-28T22:20:55.962Z,3.13
2018-06-28T22:23:25.261Z,3.07
2018-06-28T22:25:54.624Z,3.00
2018-06-28T22:28:23.908Z,2.97
2018-06-28T22:30:53.220Z,3.13
2018-06-28T22:33:22.495Z,3.03
2018-06-28T22:35:51.893Z,3.00
2018-06-28T22:38:21.181Z,3.30
2018-06-28T22:40:50.504Z,3.23
2018-06-28T22:43:19.807Z,2.40
2018-06-28T22:45:49.164Z,3.10
2018-06-28T22:48:18.460Z,2.97
2018-06-28T22:50:47.850Z,2.83
2018-06-28T22:53:17.104Z,3.00
2018-06-28T22:55:46.613Z,3.20
2018-06-28T22:58:15.931Z,2.90
2018-06-28T23:00:45.204Z,2.97
2018-06-28T23:03:14.512Z,3.10
2018-06-28T23:05:43.851Z,3.40
2018-06-28T23:08:13.204Z,2.90
2018-06-28T23:10:42.479Z,3.13
2018-06-28T23:13:11.804Z,3.13
2018-06-28T23:15:41.080Z,2.90
2018-06-28T23:18:10.421Z,2.77
2018-06-28T23:20:39.705Z,3.10
2018-06-28T23:23:09.041Z,3.13
2018-06-28T23:25:38.461Z,3.23
2018-06-28T23:28:08.082Z,3.30
2018-06-28T23:30:37.661Z,3.30
2018-06-28T23:33:07.254Z,3.00
2018-06-28T23:35:36.729Z,3.20
2018-06-28T23:38:06.526Z,2.70
2018-06-28T23:40:35.860Z,2.70
2018-06-28T23:43:05.244Z,3.10
2018-06-28T23:45:34.564Z,3.10
2018-06-28T23:48:03.942Z,3.20
2018-06-28T23:50:33.208Z,3.57
2018-06-28T23:53:02.551Z,2.80
2018-06-28T23:55:31.838Z,2.97
2018-06-28T23:58:01.200Z,3.30
